sensor_id;sensor_type;location;lat;lon;timestamp;pressure;altitude;pressure_sealevel;temperature;humidity
11621;BME280;5866;49.094;11.900;2023-08-08T00:01:41;96365.50;;;11.60;100.00
11621;BME280;5866;49.094;11.900;2023-08-08T00:04:11;96371.53;;;11.70;100.00
11621;BME280;5866;49.094;11.900;2023-08-08T00:06:39;96356.91;;;11.66;100.00
11621;BME280;5866;49.094;11.900;2023-08-08T00:09:06;96368.84;;;11.94;100.00
11621;BME280;5866;49.094;11.900;2023-08-08T00:11:34;96361.53;;;11.88;100.00
11621;BME280;5866;49.094;11.900;2023-08-08T00:14:02;96351.56;;;12.23;100.00
11621;BME280;5866;49.094;11.900;2023-08-08T00:16:29;96348.03;;;12.30;100.00
11621;BME280;5866;49.094;11.900;2023-08-08T00:18:57;96343.25;;;12.18;100.00
11621;BME280;5866;49.094;11.900;2023-08-08T00:21:26;96343.75;;;12.13;100.00
11621;BME280;5866;49.094;11.900;2023-08-08T00:23:54;96339.28;;;12.06;100.00
11621;BME280;5866;49.094;11.900;2023-08-08T00:26:21;96345.09;;;11.93;100.00
11621;BME280;5866;49.094;11.900;2023-08-08T00:28:49;96335.97;;;12.04;100.00
11621;BME280;5866;49.094;11.900;2023-08-08T00:31:19;96345.72;;;12.19;100.00
11621;BME280;5866;49.094;11.900;2023-08-08T00:33:46;96344.41;;;12.15;100.00
11621;BME280;5866;49.094;11.900;2023-08-08T00:36:14;96342.59;;;12.08;100.00
11621;BME280;5866;49.094;11.900;2023-08-08T00:38:43;96337.75;;;12.27;100.00
11621;BME280;5866;49.094;11.900;2023-08-08T00:41:10;96339.22;;;12.30;100.00
11621;BME280;5866;49.094;11.900;2023-08-08T00:43:38;96331.25;;;12.38;100.00
11621;BME280;5866;49.094;11.900;2023-08-08T00:46:06;96335.91;;;12.20;100.00
11621;BME280;5866;49.094;11.900;2023-08-08T00:48:34;96328.19;;;12.49;100.00
11621;BME280;5866;49.094;11.900;2023-08-08T00:51:02;96339.81;;;12.56;100.00
11621;BME280;5866;49.094;11.900;2023-08-08T00:53:30;96332.28;;;12.67;100.00
11621;BME280;5866;49.094;11.900;2023-08-08T00:55:59;96325.44;;;12.81;100.00
11621;BME280;5866;49.094;11.900;2023-08-08T00:58:27;96329.16;;;12.95;100.00
11621;BME280;5866;49.094;11.900;2023-08-08T01:00:55;96322.88;;;13.26;100.00
11621;BME280;5866;49.094;11.900;2023-08-08T01:03:26;96325.53;;;13.49;100.00
11621;BME280;5866;49.094;11.900;2023-08-08T01:06:02;96328.31;;;14.01;100.00
11621;BME280;5866;49.094;11.900;2023-08-08T01:08:35;96330.81;;;14.17;100.00
11621;BME280;5866;49.094;11.900;2023-08-08T01:11:08;96325.84;;;14.14;100.00
11621;BME280;5866;49.094;11.900;2023-08-08T01:13:37;96324.91;;;13.70;100.00
11621;BME280;5866;49.094;11.900;2023-08-08T01:16:05;96323.66;;;13.57;100.00
11621;BME280;5866;49.094;11.900;2023-08-08T01:18:35;96318.19;;;13.28;100.00
11621;BME280;5866;49.094;11.900;2023-08-08T01:21:04;96323.38;;;13.22;100.00
11621;BME280;5866;49.094;11.900;2023-08-08T01:23:34;96317.66;;;13.02;100.00
11621;BME280;5866;49.094;11.900;2023-08-08T01:26:10;96316.16;;;13.08;100.00
11621;BME280;5866;49.094;11.900;2023-08-08T01:28:38;96319.94;;;13.13;100.00
11621;BME280;5866;49.094;11.900;2023-08-08T01:31:06;96313.97;;;13.42;100.00
11621;BME280;5866;49.094;11.900;2023-08-08T01:33:33;96322.47;;;13.37;100.00
11621;BME280;5866;49.094;11.900;2023-08-08T01:36:05;96325.25;;;13.67;100.00
11621;BME280;5866;49.094;11.900;2023-08-08T01:38:38;96314.53;;;13.75;100.00
11621;BME280;5866;49.094;11.900;2023-08-08T01:41:09;96324.50;;;13.95;100.00
11621;BME280;5866;49.094;11.900;2023-08-08T01:43:38;96321.94;;;13.65;100.00
11621;BME280;5866;49.094;11.900;2023-08-08T01:46:06;96321.16;;;13.79;100.00
11621;BME280;5866;49.094;11.900;2023-08-08T01:48:34;96322.41;;;13.45;100.00
11621;BME280;5866;49.094;11.900;2023-08-08T01:51:02;96317.72;;;13.25;100.00
11621;BME280;5866;49.094;11.900;2023-08-08T01:53:30;96314.75;;;13.20;100.00
11621;BME280;5866;49.094;11.900;2023-08-08T01:55:58;96306.38;;;13.31;100.00
11621;BME280;5866;49.094;11.900;2023-08-08T01:58:26;96311.56;;;13.24;100.00
11621;BME280;5866;49.094;11.900;2023-08-08T02:00:54;96317.34;;;13.05;100.00
11621;BME280;5866;49.094;11.900;2023-08-08T02:03:22;96307.91;;;13.25;100.00
11621;BME280;5866;49.094;11.900;2023-08-08T02:05:49;96314.28;;;13.39;100.00
11621;BME280;5866;49.094;11.900;2023-08-08T02:08:17;96311.94;;;13.21;100.00
11621;BME280;5866;49.094;11.900;2023-08-08T02:10:45;96315.16;;;13.01;100.00
11621;BME280;5866;49.094;11.900;2023-08-08T02:13:13;96317.34;;;13.05;100.00
11621;BME280;5866;49.094;11.900;2023-08-08T02:15:42;96316.19;;;12.61;100.00
11621;BME280;5866;49.094;11.900;2023-08-08T02:18:09;96327.88;;;12.52;100.00
11621;BME280;5866;49.094;11.900;2023-08-08T02:20:37;96317.88;;;12.54;100.00
11621;BME280;5866;49.094;11.900;2023-08-08T02:23:05;96308.47;;;12.74;100.00
11621;BME280;5866;49.094;11.900;2023-08-08T02:25:32;96301.88;;;12.62;100.00
11621;BME280;5866;49.094;11.900;2023-08-08T02:28:00;96307.97;;;12.78;100.00
11621;BME280;5866;49.094;11.900;2023-08-08T02:30:27;96304.22;;;12.96;100.00
11621;BME280;5866;49.094;11.900;2023-08-08T02:32:56;96294.88;;;13.30;100.00
11621;BME280;5866;49.094;11.900;2023-08-08T02:35:24;96294.13;;;13.44;100.00
11621;BME280;5866;49.094;11.900;2023-08-08T02:37:52;96299.41;;;13.30;100.00
11621;BME280;5866;49.094;11.900;2023-08-08T02:40:19;96302.00;;;13.15;100.00
11621;BME280;5866;49.094;11.900;2023-08-08T02:42:50;96304.06;;;13.28;100.00
11621;BME280;5866;49.094;11.900;2023-08-08T02:45:17;96305.31;;;13.17;100.00
11621;BME280;5866;49.094;11.900;2023-08-08T02:47:45;96294.56;;;12.95;100.00
11621;BME280;5866;49.094;11.900;2023-08-08T02:50:14;96296.44;;;12.86;100.00
11621;BME280;5866;49.094;11.900;2023-08-08T02:52:41;96292.59;;;12.58;100.00
11621;BME280;5866;49.094;11.900;2023-08-08T02:55:09;96297.53;;;12.61;100.00
11621;BME280;5866;49.094;11.900;2023-08-08T02:57:37;96299.38;;;12.68;100.00
11621;BME280;5866;49.094;11.900;2023-08-08T03:00:05;96308.06;;;12.54;100.00
11621;BME280;5866;49.094;11.900;2023-08-08T03:02:34;96310.41;;;12.49;100.00
11621;BME280;5866;49.094;11.900;2023-08-08T03:05:01;96312.16;;;12.73;100.00
11621;BME280;5866;49.094;11.900;2023-08-08T03:07:30;96312.50;;;12.70;100.00
11621;BME280;5866;49.094;11.900;2023-08-08T03:09:57;96300.72;;;12.95;100.00
11621;BME280;5866;49.094;11.900;2023-08-08T03:12:25;96303.34;;;12.72;100.00
11621;BME280;5866;49.094;11.900;2023-08-08T03:14:53;96295.06;;;12.98;100.00
11621;BME280;5866;49.094;11.900;2023-08-08T03:17:21;96290.06;;;12.95;100.00
11621;BME280;5866;49.094;11.900;2023-08-08T03:19:48;96301.69;;;12.63;100.00
11621;BME280;5866;49.094;11.900;2023-08-08T03:22:16;96295.22;;;13.05;100.00
11621;BME280;5866;49.094;11.900;2023-08-08T03:24:45;96309.53;;;12.65;100.00
11621;BME280;5866;49.094;11.900;2023-08-08T03:27:13;96310.63;;;12.78;100.00
11621;BME280;5866;49.094;11.900;2023-08-08T03:29:40;96306.03;;;12.95;100.00
11621;BME280;5866;49.094;11.900;2023-08-08T03:32:08;96299.91;;;13.25;100.00
11621;BME280;5866;49.094;11.900;2023-08-08T03:34:36;96309.06;;;12.92;100.00
11621;BME280;5866;49.094;11.900;2023-08-08T03:37:03;96308.41;;;12.90;100.00
11621;BME280;5866;49.094;11.900;2023-08-08T03:39:31;96303.28;;;13.19;100.00
11621;BME280;5866;49.094;11.900;2023-08-08T03:42:00;96301.88;;;13.31;100.00
11621;BME280;5866;49.094;11.900;2023-08-08T03:44:28;96300.66;;;13.11;100.00
11621;BME280;5866;49.094;11.900;2023-08-08T03:46:56;96295.69;;;13.08;100.00
11621;BME280;5866;49.094;11.900;2023-08-08T03:49:43;96297.69;;;12.67;100.00
11621;BME280;5866;49.094;11.900;2023-08-08T03:52:10;96299.06;;;12.55;100.00
11621;BME280;5866;49.094;11.900;2023-08-08T03:54:39;96296.94;;;12.90;100.00
11621;BME280;5866;49.094;11.900;2023-08-08T03:57:08;96295.97;;;13.13;100.00
11621;BME280;5866;49.094;11.900;2023-08-08T03:59:35;96297.59;;;13.45;100.00
11621;BME280;5866;49.094;11.900;2023-08-08T04:02:03;96306.25;;;13.24;100.00
11621;BME280;5866;49.094;11.900;2023-08-08T04:04:32;96308.25;;;13.22;100.00
11621;BME280;5866;49.094;11.900;2023-08-08T04:07:00;96309.69;;;13.33;100.00
11621;BME280;5866;49.094;11.900;2023-08-08T04:09:27;96309.56;;;13.49;100.00
11621;BME280;5866;49.094;11.900;2023-08-08T04:11:55;96310.38;;;13.95;100.00
11621;BME280;5866;49.094;11.900;2023-08-08T04:14:24;96310.22;;;14.11;100.00
11621;BME280;5866;49.094;11.900;2023-08-08T04:16:52;96316.63;;;13.65;100.00
11621;BME280;5866;49.094;11.900;2023-08-08T04:19:20;96321.81;;;13.58;100.00
11621;BME280;5866;49.094;11.900;2023-08-08T04:21:47;96314.16;;;13.32;100.00
11621;BME280;5866;49.094;11.900;2023-08-08T04:24:15;96320.38;;;12.94;100.00
11621;BME280;5866;49.094;11.900;2023-08-08T04:26:43;96324.44;;;12.74;100.00
11621;BME280;5866;49.094;11.900;2023-08-08T04:29:10;96328.09;;;12.81;100.00
11621;BME280;5866;49.094;11.900;2023-08-08T04:31:39;96324.34;;;13.29;100.00
11621;BME280;5866;49.094;11.900;2023-08-08T04:34:07;96319.56;;;13.24;100.00
11621;BME280;5866;49.094;11.900;2023-08-08T04:36:34;96317.84;;;13.31;100.00
11621;BME280;5866;49.094;11.900;2023-08-08T04:39:02;96318.72;;;13.24;100.00
11621;BME280;5866;49.094;11.900;2023-08-08T04:41:29;96327.22;;;13.27;100.00
11621;BME280;5866;49.094;11.900;2023-08-08T04:43:57;96319.88;;;13.29;100.00
11621;BME280;5866;49.094;11.900;2023-08-08T04:46:25;96330.13;;;13.10;100.00
11621;BME280;5866;49.094;11.900;2023-08-08T04:48:54;96327.28;;;13.03;100.00
11621;BME280;5866;49.094;11.900;2023-08-08T04:51:23;96323.06;;;13.70;100.00
11621;BME280;5866;49.094;11.900;2023-08-08T04:53:51;96315.22;;;13.91;100.00
11621;BME280;5866;49.094;11.900;2023-08-08T04:56:19;96315.72;;;13.72;100.00
11621;BME280;5866;49.094;11.900;2023-08-08T04:58:46;96321.22;;;14.45;100.00
11621;BME280;5866;49.094;11.900;2023-08-08T05:01:14;96328.13;;;14.54;100.00
11621;BME280;5866;49.094;11.900;2023-08-08T05:03:44;96318.91;;;14.71;100.00
11621;BME280;5866;49.094;11.900;2023-08-08T05:06:13;96316.97;;;14.80;100.00
11621;BME280;5866;49.094;11.900;2023-08-08T05:08:41;96323.50;;;14.48;100.00
11621;BME280;5866;49.094;11.900;2023-08-08T05:11:09;96324.09;;;14.21;100.00
11621;BME280;5866;49.094;11.900;2023-08-08T05:13:36;96326.47;;;14.53;100.00
11621;BME280;5866;49.094;11.900;2023-08-08T05:16:04;96311.31;;;15.40;100.00
11621;BME280;5866;49.094;11.900;2023-08-08T05:18:32;96315.47;;;16.61;100.00
11621;BME280;5866;49.094;11.900;2023-08-08T05:21:00;96311.66;;;17.30;100.00
11621;BME280;5866;49.094;11.900;2023-08-08T05:23:29;96314.66;;;17.62;99.48
11621;BME280;5866;49.094;11.900;2023-08-08T05:25:56;96317.16;;;17.76;97.00
11621;BME280;5866;49.094;11.900;2023-08-08T05:28:24;96310.38;;;18.59;92.02
11621;BME280;5866;49.094;11.900;2023-08-08T05:30:51;96311.53;;;19.53;84.77
11621;BME280;5866;49.094;11.900;2023-08-08T05:33:19;96309.28;;;20.12;74.87
11621;BME280;5866;49.094;11.900;2023-08-08T05:35:47;96303.63;;;20.88;69.62
11621;BME280;5866;49.094;11.900;2023-08-08T05:38:14;96302.97;;;21.10;67.49
11621;BME280;5866;49.094;11.900;2023-08-08T05:40:43;96304.59;;;21.29;64.55
11621;BME280;5866;49.094;11.900;2023-08-08T05:43:11;96315.84;;;21.26;64.77
11621;BME280;5866;49.094;11.900;2023-08-08T05:45:43;96300.53;;;20.84;65.41
11621;BME280;5866;49.094;11.900;2023-08-08T05:48:11;96307.16;;;21.24;65.27
11621;BME280;5866;49.094;11.900;2023-08-08T05:50:39;96302.78;;;20.69;65.81
11621;BME280;5866;49.094;11.900;2023-08-08T05:53:07;96313.72;;;20.92;66.91
11621;BME280;5866;49.094;11.900;2023-08-08T05:55:34;96307.44;;;21.34;63.92
11621;BME280;5866;49.094;11.900;2023-08-08T05:58:04;96307.94;;;21.91;62.09
11621;BME280;5866;49.094;11.900;2023-08-08T06:00:31;96311.56;;;22.49;59.72
11621;BME280;5866;49.094;11.900;2023-08-08T06:02:59;96313.03;;;22.63;58.90
11621;BME280;5866;49.094;11.900;2023-08-08T06:05:26;96315.84;;;22.80;56.87
11621;BME280;5866;49.094;11.900;2023-08-08T06:07:54;96311.63;;;22.72;57.17
11621;BME280;5866;49.094;11.900;2023-08-08T06:10:22;96301.09;;;22.53;58.15
11621;BME280;5866;49.094;11.900;2023-08-08T06:12:51;96298.25;;;23.29;55.04
11621;BME280;5866;49.094;11.900;2023-08-08T06:15:20;96306.41;;;23.06;56.45
11621;BME280;5866;49.094;11.900;2023-08-08T06:17:48;96301.09;;;24.18;53.39
11621;BME280;5866;49.094;11.900;2023-08-08T06:20:15;96300.00;;;23.75;53.08
11621;BME280;5866;49.094;11.900;2023-08-08T06:22:43;96289.75;;;23.93;52.30
11621;BME280;5866;49.094;11.900;2023-08-08T06:25:11;96292.00;;;23.96;52.85
11621;BME280;5866;49.094;11.900;2023-08-08T06:27:38;96288.28;;;23.86;52.69
11621;BME280;5866;49.094;11.900;2023-08-08T06:30:07;96291.88;;;24.19;51.99
11621;BME280;5866;49.094;11.900;2023-08-08T06:32:36;96289.16;;;23.75;52.73
11621;BME280;5866;49.094;11.900;2023-08-08T06:35:05;96279.81;;;23.54;52.57
11621;BME280;5866;49.094;11.900;2023-08-08T06:37:32;96279.88;;;24.15;51.72
11621;BME280;5866;49.094;11.900;2023-08-08T06:40:00;96279.28;;;24.13;51.62
11621;BME280;5866;49.094;11.900;2023-08-08T06:42:28;96286.47;;;23.35;53.03
11621;BME280;5866;49.094;11.900;2023-08-08T06:44:55;96288.97;;;23.25;53.57
11621;BME280;5866;49.094;11.900;2023-08-08T06:47:25;96288.31;;;22.71;55.13
11621;BME280;5866;49.094;11.900;2023-08-08T06:49:54;96290.59;;;23.37;54.78
11621;BME280;5866;49.094;11.900;2023-08-08T06:52:22;96290.16;;;23.06;54.13
11621;BME280;5866;49.094;11.900;2023-08-08T06:54:49;96295.34;;;22.26;57.08
11621;BME280;5866;49.094;11.900;2023-08-08T06:57:17;96281.59;;;22.51;56.16
11621;BME280;5866;49.094;11.900;2023-08-08T06:59:44;96288.38;;;23.34;54.83
11621;BME280;5866;49.094;11.900;2023-08-08T07:02:16;96287.09;;;24.10;52.29
11621;BME280;5866;49.094;11.900;2023-08-08T07:04:44;96279.72;;;24.05;51.93
11621;BME280;5866;49.094;11.900;2023-08-08T07:07:13;96274.69;;;24.64;51.32
11621;BME280;5866;49.094;11.900;2023-08-08T07:09:41;96275.44;;;24.42;50.30
11621;BME280;5866;49.094;11.900;2023-08-08T07:12:09;96278.63;;;24.73;51.29
11621;BME280;5866;49.094;11.900;2023-08-08T07:14:36;96275.72;;;24.96;49.87
11621;BME280;5866;49.094;11.900;2023-08-08T07:17:04;96281.94;;;25.13;49.27
11621;BME280;5866;49.094;11.900;2023-08-08T07:19:32;96285.84;;;25.00;49.30
11621;BME280;5866;49.094;11.900;2023-08-08T07:21:59;96279.50;;;23.95;52.15
11621;BME280;5866;49.094;11.900;2023-08-08T07:24:29;96278.06;;;23.76;52.65
11621;BME280;5866;49.094;11.900;2023-08-08T07:26:58;96278.22;;;24.81;50.43
11621;BME280;5866;49.094;11.900;2023-08-08T07:29:26;96270.50;;;25.33;50.09
11621;BME280;5866;49.094;11.900;2023-08-08T07:31:53;96269.75;;;24.94;49.23
11621;BME280;5866;49.094;11.900;2023-08-08T07:34:21;96267.03;;;24.94;50.62
11621;BME280;5866;49.094;11.900;2023-08-08T07:36:49;96265.31;;;24.88;49.91
11621;BME280;5866;49.094;11.900;2023-08-08T07:39:17;96261.22;;;25.29;49.67
11621;BME280;5866;49.094;11.900;2023-08-08T07:41:46;96267.88;;;24.44;51.56
11621;BME280;5866;49.094;11.900;2023-08-08T07:44:13;96277.38;;;22.78;53.86
11621;BME280;5866;49.094;11.900;2023-08-08T07:46:41;96275.03;;;21.34;64.20
11621;BME280;5866;49.094;11.900;2023-08-08T07:49:08;96277.47;;;19.27;76.03
11621;BME280;5866;49.094;11.900;2023-08-08T07:51:36;96268.59;;;19.96;77.54
11621;BME280;5866;49.094;11.900;2023-08-08T07:54:04;96281.88;;;19.15;78.61
11621;BME280;5866;49.094;11.900;2023-08-08T07:56:35;96278.63;;;19.00;85.47
11621;BME280;5866;49.094;11.900;2023-08-08T07:59:04;96274.63;;;19.22;87.38
11621;BME280;5866;49.094;11.900;2023-08-08T08:01:31;96275.50;;;20.10;77.59
11621;BME280;5866;49.094;11.900;2023-08-08T08:03:59;96275.34;;;20.05;76.82
11621;BME280;5866;49.094;11.900;2023-08-08T08:06:27;96274.09;;;20.32;78.62
11621;BME280;5866;49.094;11.900;2023-08-08T08:08:54;96283.38;;;19.55;79.20
11621;BME280;5866;49.094;11.900;2023-08-08T08:11:22;96281.16;;;18.95;85.52
11621;BME280;5866;49.094;11.900;2023-08-08T08:13:50;96278.28;;;18.77;86.42
11621;BME280;5866;49.094;11.900;2023-08-08T08:16:18;96266.84;;;20.08;81.80
11621;BME280;5866;49.094;11.900;2023-08-08T08:18:47;96264.44;;;21.03;72.46
11621;BME280;5866;49.094;11.900;2023-08-08T08:21:15;96257.66;;;21.30;68.56
11621;BME280;5866;49.094;11.900;2023-08-08T08:23:43;96256.44;;;21.15;71.30
11621;BME280;5866;49.094;11.900;2023-08-08T08:26:11;96258.84;;;21.53;66.50
11621;BME280;5866;49.094;11.900;2023-08-08T08:28:38;96259.66;;;20.69;72.40
11621;BME280;5866;49.094;11.900;2023-08-08T08:31:07;96267.91;;;19.75;77.62
11621;BME280;5866;49.094;11.900;2023-08-08T08:33:36;96250.34;;;20.83;73.44
11621;BME280;5866;49.094;11.900;2023-08-08T08:36:05;96247.34;;;22.10;68.86
11621;BME280;5866;49.094;11.900;2023-08-08T08:38:32;96241.25;;;22.96;58.65
11621;BME280;5866;49.094;11.900;2023-08-08T08:41:02;96246.31;;;22.92;59.22
11621;BME280;5866;49.094;11.900;2023-08-08T08:43:30;96235.16;;;23.56;57.40
11621;BME280;5866;49.094;11.900;2023-08-08T08:46:00;96244.31;;;23.67;55.08
11621;BME280;5866;49.094;11.900;2023-08-08T08:48:28;96239.34;;;23.47;55.09
11621;BME280;5866;49.094;11.900;2023-08-08T08:50:57;96238.53;;;23.92;55.10
11621;BME280;5866;49.094;11.900;2023-08-08T08:53:26;96235.91;;;24.30;52.44
11621;BME280;5866;49.094;11.900;2023-08-08T08:55:54;96235.69;;;24.48;53.60
11621;BME280;5866;49.094;11.900;2023-08-08T08:58:24;96241.41;;;24.52;52.37
11621;BME280;5866;49.094;11.900;2023-08-08T09:00:55;96231.84;;;24.82;50.74
11621;BME280;5866;49.094;11.900;2023-08-08T09:03:24;96227.38;;;24.21;54.50
11621;BME280;5866;49.094;11.900;2023-08-08T09:05:52;96232.13;;;24.48;52.63
11621;BME280;5866;49.094;11.900;2023-08-08T09:08:22;96221.09;;;24.71;52.09
11621;BME280;5866;49.094;11.900;2023-08-08T09:10:50;96235.31;;;23.95;55.71
11621;BME280;5866;49.094;11.900;2023-08-08T09:13:18;96241.81;;;21.64;62.01
11621;BME280;5866;49.094;11.900;2023-08-08T09:15:49;96233.66;;;22.81;61.07
11621;BME280;5866;49.094;11.900;2023-08-08T09:18:17;96232.97;;;20.97;67.25
11621;BME280;5866;49.094;11.900;2023-08-08T09:20:47;96221.19;;;21.69;66.39
11621;BME280;5866;49.094;11.900;2023-08-08T09:23:15;96226.50;;;22.63;61.04
11621;BME280;5866;49.094;11.900;2023-08-08T09:25:44;96222.06;;;23.65;55.84
11621;BME280;5866;49.094;11.900;2023-08-08T09:28:12;96221.41;;;23.58;57.93
11621;BME280;5866;49.094;11.900;2023-08-08T09:30:41;96227.88;;;22.08;62.15
11621;BME280;5866;49.094;11.900;2023-08-08T09:33:08;96218.94;;;21.66;64.13
11621;BME280;5866;49.094;11.900;2023-08-08T09:35:37;96223.53;;;22.53;60.32
11621;BME280;5866;49.094;11.900;2023-08-08T09:38:06;96208.72;;;23.75;55.45
11621;BME280;5866;49.094;11.900;2023-08-08T09:40:33;96217.06;;;24.73;51.79
11621;BME280;5866;49.094;11.900;2023-08-08T09:43:03;96208.44;;;24.60;49.84
11621;BME280;5866;49.094;11.900;2023-08-08T09:45:36;96207.06;;;24.74;49.96
11621;BME280;5866;49.094;11.900;2023-08-08T09:48:04;96204.59;;;24.94;49.44
11621;BME280;5866;49.094;11.900;2023-08-08T09:50:32;96202.31;;;25.07;48.94
11621;BME280;5866;49.094;11.900;2023-08-08T09:53:02;96203.44;;;25.55;48.33
11621;BME280;5866;49.094;11.900;2023-08-08T09:55:33;96197.34;;;25.21;49.55
11621;BME280;5866;49.094;11.900;2023-08-08T09:58:03;96195.56;;;23.67;50.40
11621;BME280;5866;49.094;11.900;2023-08-08T10:00:31;96187.63;;;24.43;48.17
11621;BME280;5866;49.094;11.900;2023-08-08T10:03:00;96197.72;;;23.37;49.33
11621;BME280;5866;49.094;11.900;2023-08-08T10:05:28;96202.03;;;22.00;54.61
11621;BME280;5866;49.094;11.900;2023-08-08T10:07:56;96191.41;;;23.20;52.06
11621;BME280;5866;49.094;11.900;2023-08-08T10:10:24;96190.25;;;23.44;50.21
11621;BME280;5866;49.094;11.900;2023-08-08T10:12:52;96183.44;;;24.19;48.63
11621;BME280;5866;49.094;11.900;2023-08-08T10:15:25;96188.50;;;22.47;51.92
11621;BME280;5866;49.094;11.900;2023-08-08T10:17:55;96191.66;;;20.49;57.92
11621;BME280;5866;49.094;11.900;2023-08-08T10:20:24;96198.00;;;20.12;62.74
11621;BME280;5866;49.094;11.900;2023-08-08T10:22:53;96189.28;;;20.16;68.51
11621;BME280;5866;49.094;11.900;2023-08-08T10:25:26;96201.28;;;19.96;66.62
11621;BME280;5866;49.094;11.900;2023-08-08T10:28:04;96191.09;;;20.22;63.14
11621;BME280;5866;49.094;11.900;2023-08-08T10:30:54;96183.53;;;20.85;60.74
11621;BME280;5866;49.094;11.900;2023-08-08T10:33:23;96188.66;;;21.64;60.43
11621;BME280;5866;49.094;11.900;2023-08-08T10:35:57;96179.84;;;21.16;62.55
11621;BME280;5866;49.094;11.900;2023-08-08T10:38:26;96171.41;;;20.94;62.98
11621;BME280;5866;49.094;11.900;2023-08-08T10:40:58;96170.53;;;22.41;59.01
11621;BME280;5866;49.094;11.900;2023-08-08T10:43:26;96180.88;;;22.32;53.76
11621;BME280;5866;49.094;11.900;2023-08-08T10:45:58;96170.84;;;23.47;51.47
11621;BME280;5866;49.094;11.900;2023-08-08T10:48:48;96177.94;;;24.31;50.94
11621;BME280;5866;49.094;11.900;2023-08-08T10:51:16;96173.94;;;22.01;52.87
11621;BME280;5866;49.094;11.900;2023-08-08T10:53:45;96164.16;;;21.24;56.65
11621;BME280;5866;49.094;11.900;2023-08-08T10:56:13;96182.47;;;20.14;58.04
11621;BME280;5866;49.094;11.900;2023-08-08T10:58:46;96175.72;;;19.55;58.01
11621;BME280;5866;49.094;11.900;2023-08-08T11:01:16;96181.84;;;19.94;62.62
11621;BME280;5866;49.094;11.900;2023-08-08T11:03:44;96185.22;;;20.50;60.72
11621;BME280;5866;49.094;11.900;2023-08-08T11:06:12;96169.94;;;21.28;57.11
11621;BME280;5866;49.094;11.900;2023-08-08T11:08:41;96169.19;;;20.37;57.32
11621;BME280;5866;49.094;11.900;2023-08-08T11:11:08;96164.06;;;21.31;55.68
11621;BME280;5866;49.094;11.900;2023-08-08T11:13:36;96168.88;;;22.51;51.93
11621;BME280;5866;49.094;11.900;2023-08-08T11:16:03;96153.03;;;22.95;51.69
11621;BME280;5866;49.094;11.900;2023-08-08T11:18:32;96150.50;;;22.76;52.59
11621;BME280;5866;49.094;11.900;2023-08-08T11:21:00;96164.31;;;21.82;53.86
11621;BME280;5866;49.094;11.900;2023-08-08T11:23:45;96164.66;;;21.03;54.29
11621;BME280;5866;49.094;11.900;2023-08-08T11:26:16;96159.56;;;20.95;54.43
11621;BME280;5866;49.094;11.900;2023-08-08T11:28:49;96155.00;;;20.96;51.89
11621;BME280;5866;49.094;11.900;2023-08-08T11:31:17;96131.38;;;20.80;52.93
11621;BME280;5866;49.094;11.900;2023-08-08T11:33:48;96151.00;;;19.90;56.04
11621;BME280;5866;49.094;11.900;2023-08-08T11:36:16;96159.28;;;19.88;58.87
11621;BME280;5866;49.094;11.900;2023-08-08T11:38:44;96145.69;;;20.26;56.78
11621;BME280;5866;49.094;11.900;2023-08-08T11:41:12;96147.38;;;21.22;55.12
11621;BME280;5866;49.094;11.900;2023-08-08T11:43:41;96157.84;;;21.83;52.30
11621;BME280;5866;49.094;11.900;2023-08-08T11:46:09;96157.47;;;21.80;52.83
11621;BME280;5866;49.094;11.900;2023-08-08T11:48:37;96150.41;;;21.79;53.13
11621;BME280;5866;49.094;11.900;2023-08-08T11:51:07;96154.19;;;21.25;54.77
11621;BME280;5866;49.094;11.900;2023-08-08T11:53:35;96146.81;;;20.54;56.04
11621;BME280;5866;49.094;11.900;2023-08-08T11:56:03;96145.41;;;21.29;56.84
11621;BME280;5866;49.094;11.900;2023-08-08T11:58:33;96139.25;;;21.64;51.55
11621;BME280;5866;49.094;11.900;2023-08-08T12:01:00;96145.06;;;21.38;54.50
11621;BME280;5866;49.094;11.900;2023-08-08T12:03:28;96151.41;;;21.84;54.74
11621;BME280;5866;49.094;11.900;2023-08-08T12:05:56;96146.09;;;21.78;52.21
11621;BME280;5866;49.094;11.900;2023-08-08T12:08:30;96144.47;;;22.23;53.70
11621;BME280;5866;49.094;11.900;2023-08-08T12:11:00;96139.53;;;22.20;50.57
11621;BME280;5866;49.094;11.900;2023-08-08T12:13:28;96142.97;;;23.07;48.80
11621;BME280;5866;49.094;11.900;2023-08-08T12:15:57;96150.97;;;21.58;50.26
11621;BME280;5866;49.094;11.900;2023-08-08T12:18:30;96129.66;;;22.14;47.04
11621;BME280;5866;49.094;11.900;2023-08-08T12:20:58;96143.53;;;23.65;43.63
11621;BME280;5866;49.094;11.900;2023-08-08T12:23:28;96140.22;;;23.63;43.83
11621;BME280;5866;49.094;11.900;2023-08-08T12:25:57;96138.75;;;23.39;44.12
11621;BME280;5866;49.094;11.900;2023-08-08T12:28:24;96136.75;;;23.34;42.43
11621;BME280;5866;49.094;11.900;2023-08-08T12:30:52;96136.59;;;22.22;46.02
11621;BME280;5866;49.094;11.900;2023-08-08T12:33:20;96134.31;;;22.65;45.37
11621;BME280;5866;49.094;11.900;2023-08-08T12:35:47;96126.16;;;23.05;44.71
11621;BME280;5866;49.094;11.900;2023-08-08T12:38:15;96130.88;;;22.69;46.12
11621;BME280;5866;49.094;11.900;2023-08-08T12:40:45;96128.22;;;22.46;46.37
11621;BME280;5866;49.094;11.900;2023-08-08T12:43:13;96133.66;;;22.23;48.29
11621;BME280;5866;49.094;11.900;2023-08-08T12:45:44;96116.88;;;21.22;46.79
11621;BME280;5866;49.094;11.900;2023-08-08T12:48:12;96125.69;;;21.29;47.34
11621;BME280;5866;49.094;11.900;2023-08-08T12:50:39;96130.81;;;21.72;47.73
11621;BME280;5866;49.094;11.900;2023-08-08T12:53:07;96126.03;;;21.32;48.61
11621;BME280;5866;49.094;11.900;2023-08-08T12:55:35;96120.97;;;21.66;49.26
11621;BME280;5866;49.094;11.900;2023-08-08T12:58:05;96122.50;;;21.85;48.72
11621;BME280;5866;49.094;11.900;2023-08-08T13:00:33;96122.38;;;22.14;46.13
11621;BME280;5866;49.094;11.900;2023-08-08T13:03:00;96124.75;;;22.11;48.24